Terminal Aerodrome Forecast
Issued by NWS

Home | Current Version | Previous Version | Text Only | Print | Product List | Glossary On
Versions: 1 2 3 4 5 6 7 8 9 10 11 12 13 14 15 16 17 18 19 20 21 22 23 24 25 26 27 28 29 30 31
000
FTUS46 KSEW 291755
TAFSEA
TAF
KSEA 291755Z 2918/3024 17020G30KT P6SM -RA BKN040 OVC050
     FM291900 21018G28KT P6SM -SHRA BKN050 OVC080
     FM300000 19012KT P6SM SCT050 OVC080
     FM300300 23012KT 3SM RA BR BKN030 OVC050
     FM300900 18008KT P6SM VCSH SCT025 BKN040
     FM301500 21010KT P6SM -SHRA BKN030 OVC060
     FM302000 21012G20KT P6SM BKN050=

USA.gov is the U.S. government's official web portal to all federal, state and local government web resources and services.